»·PEaware :: UAL572 KSFO-KSAN

UAL572 :: KSFO-KSAN

FLIGHT INFORMATION

Flight Status: Arrived
Operator:
United Airlines
More flights by this operator :: More flights under this callsign
Pilot: Ruben R. (12247)
Aircraft: BOEING 757-200
(B752)
More flights by this aircraft type
Origin: KSFO San Francisco Intl
United States
Destination: KSAN San Diego Intl-Lindbergh
United States
More flights between these airports :: More routes between these airports
Route: +OFFSH1 MCKEY LAX COMIX1
File this flight plan on PilotEdge
Remarks: TWITCH.TV / THEMACH3LOUNGE
Altitude:
(Current/Filed)
36,000ft
Speed:
(Current/Filed)
450kts
Departed: 29-Dec-17 07:44 PM
Arrived: 29-Dec-17 08:58 PM
Distance/Time
Traveled:
388nm/1:14
Distance/Time
To Go:
Arrived

Flight Plot

Page will automatically refresh every two minutes.

Flight plan parsing failed; only flown route is shown


Map Options




Map Legend


Flown Route
Filed Route
Departure Airport
Arrival Airport
Navaid (VOR, NDB)
Fix

Horizontal Profiles

Position Reports

Time Latitude Longitude Heading Altitude Ground
Speed
29-Dec-17 19:20 37.618833 -122.385220 155 24ft 0kts
29-Dec-17 19:21 37.618833 -122.385220 155 24ft 0kts
29-Dec-17 19:22 37.618833 -122.385220 155 24ft 0kts
29-Dec-17 19:23 37.618833 -122.385220 155 24ft 0kts
29-Dec-17 19:24 37.618833 -122.385220 155 24ft 0kts
29-Dec-17 19:25 37.618833 -122.385220 155 24ft 0kts
29-Dec-17 19:26 37.618833 -122.385220 155 24ft 0kts
29-Dec-17 19:27 37.618833 -122.385220 155 24ft 0kts
29-Dec-17 19:28 37.618833 -122.385220 155 24ft 0kts
29-Dec-17 19:29 37.618833 -122.385220 155 24ft 0kts
29-Dec-17 19:30 37.618833 -122.385220 155 24ft 0kts
29-Dec-17 19:31 37.618833 -122.385220 155 24ft 0kts
29-Dec-17 19:32 37.618833 -122.385220 155 24ft 0kts
29-Dec-17 19:33 37.618833 -122.385220 155 24ft 0kts
29-Dec-17 19:34 37.618896 -122.385256 155 24ft 2kts
29-Dec-17 19:35 37.619374 -122.385557 143 24ft 1kts
29-Dec-17 19:36 37.619686 -122.386021 117 24ft 0kts
29-Dec-17 19:37 37.619686 -122.386021 117 24ft 0kts
29-Dec-17 19:38 37.619686 -122.386021 117 24ft 0kts
29-Dec-17 19:39 37.619686 -122.386021 117 24ft 0kts
29-Dec-17 19:40 37.619686 -122.386021 117 24ft 0kts
29-Dec-17 19:41 37.619686 -122.386021 117 24ft 0kts
29-Dec-17 19:42 37.620552 -122.384924 47 23ft 14kts
29-Dec-17 19:43 37.618844 -122.380211 132 24ft 16kts
29-Dec-17 19:44 37.615430 -122.380430 207 23ft 10kts
29-Dec-17 19:45 37.613477 -122.381727 207 24ft 6kts
29-Dec-17 19:46 37.610802 -122.383482 208 23ft 10kts
29-Dec-17 19:47 37.609102 -122.383470 122 24ft 0kts
29-Dec-17 19:48 37.609102 -122.383470 122 24ft 0kts
29-Dec-17 19:49 37.608787 -122.382796 107 24ft 8kts
29-Dec-17 19:50 37.619352 -122.375367 27 24ft 135kts
29-Dec-17 19:51 37.659003 -122.355240 5 1783ft 168kts
29-Dec-17 19:52 37.702602 -122.381113 270 2729ft 195kts
29-Dec-17 19:53 37.676169 -122.452248 239 4246ft 245kts
29-Dec-17 19:54 37.639715 -122.527484 238 6785ft 259kts
29-Dec-17 19:55 37.601093 -122.604914 238 9332ft 267kts
29-Dec-17 19:56 37.557962 -122.690576 237 10276ft 337kts
29-Dec-17 19:57 37.483358 -122.760413 185 12683ft 360kts
29-Dec-17 19:58 37.393039 -122.708743 146 14951ft 379kts
29-Dec-17 19:59 37.295169 -122.661743 167 17027ft 386kts
29-Dec-17 20:00 37.189569 -122.631663 169 18941ft 396kts
29-Dec-17 20:01 37.080798 -122.602919 169 20727ft 407kts
29-Dec-17 20:02 36.969541 -122.573831 170 22391ft 416kts
29-Dec-17 20:03 36.855557 -122.544156 170 23928ft 426kts
29-Dec-17 20:04 36.739448 -122.514023 170 25331ft 435kts
29-Dec-17 20:05 36.619873 -122.483084 170 26645ft 444kts
29-Dec-17 20:06 36.498148 -122.451689 170 27865ft 453kts
29-Dec-17 20:07 36.386346 -122.378485 135 28957ft 473kts
29-Dec-17 20:08 36.301987 -122.256241 133 29959ft 482kts
29-Dec-17 20:09 36.214930 -122.129625 132 30863ft 490kts
29-Dec-17 20:10 36.126853 -122.001953 132 32054ft 490kts
29-Dec-17 20:11 36.038505 -121.874372 132 33258ft 489kts
29-Dec-17 20:12 35.950579 -121.747874 132 34430ft 487kts
29-Dec-17 20:13 35.863381 -121.622890 132 34974ft 485kts
29-Dec-17 20:14 35.775684 -121.497662 132 34976ft 485kts
29-Dec-17 20:15 35.699160 -121.388761 132 34976ft 485kts
29-Dec-17 20:16 35.611904 -121.265005 133 34972ft 485kts
29-Dec-17 20:17 35.523801 -121.140508 133 34972ft 485kts
29-Dec-17 20:18 35.441694 -121.009411 126 34973ft 487kts
29-Dec-17 20:19 35.368264 -120.879729 126 34955ft 488kts
29-Dec-17 20:20 35.291709 -120.744827 126 34947ft 488kts
29-Dec-17 20:21 35.214572 -120.609394 126 34948ft 488kts
29-Dec-17 20:22 35.137081 -120.473861 126 34948ft 488kts
29-Dec-17 20:23 35.059761 -120.339142 127 34947ft 488kts
29-Dec-17 20:24 34.985019 -120.209428 126 34945ft 480kts
29-Dec-17 20:25 34.910649 -120.080800 126 34946ft 480kts
29-Dec-17 20:26 34.835934 -119.952051 126 34964ft 480kts
29-Dec-17 20:27 34.759267 -119.820426 126 34974ft 480kts
29-Dec-17 20:28 34.682974 -119.689924 126 34948ft 479kts
29-Dec-17 20:29 34.605901 -119.558573 126 34947ft 479kts
29-Dec-17 20:30 34.528797 -119.427647 126 34947ft 479kts
29-Dec-17 20:31 34.457140 -119.306402 126 34945ft 478kts
29-Dec-17 20:32 34.397545 -119.205877 126 34945ft 478kts
29-Dec-17 20:33 34.328650 -119.090032 126 34946ft 475kts
29-Dec-17 20:34 34.253716 -118.964417 126 34946ft 478kts
29-Dec-17 20:35 34.178721 -118.839161 126 34946ft 477kts
29-Dec-17 20:36 34.109263 -118.723536 126 34947ft 477kts
29-Dec-17 20:37 34.040928 -118.610139 126 34947ft 477kts
29-Dec-17 20:38 33.970202 -118.493137 126 34929ft 459kts
29-Dec-17 20:39 33.896954 -118.389154 134 30386ft 450kts
29-Dec-17 20:40 33.822218 -118.298380 135 27933ft 447kts
29-Dec-17 20:41 33.742597 -118.202549 135 26072ft 433kts
29-Dec-17 20:42 33.662545 -118.106582 135 24224ft 418kts
29-Dec-17 20:43 33.582388 -118.010770 135 22398ft 402kts
29-Dec-17 20:44 33.505489 -117.919107 135 20611ft 388kts
29-Dec-17 20:45 33.430456 -117.829904 135 18962ft 377kts
29-Dec-17 20:46 33.357552 -117.743444 135 17364ft 366kts
29-Dec-17 20:47 33.287261 -117.660286 135 15806ft 359kts
29-Dec-17 20:48 33.217386 -117.577825 135 14245ft 353kts
29-Dec-17 20:49 33.148689 -117.496942 135 12692ft 344kts
29-Dec-17 20:50 33.073747 -117.430811 145 11208ft 337kts
29-Dec-17 20:51 32.998233 -117.367481 144 10319ft 316kts
29-Dec-17 20:52 32.935174 -117.314648 145 9723ft 274kts
29-Dec-17 20:53 32.879599 -117.268339 145 8883ft 267kts
29-Dec-17 20:54 32.821862 -117.220012 138 7763ft 259kts
29-Dec-17 20:55 32.798575 -117.150887 105 6859ft 257kts
29-Dec-17 20:56 32.782473 -117.080252 105 6065ft 231kts
29-Dec-17 20:57 32.766145 -117.012026 106 5448ft 228kts
29-Dec-17 20:58 32.739431 -116.951539 154 4732ft 226kts
29-Dec-17 20:59 32.688120 -116.973366 242 3889ft 188kts
29-Dec-17 21:00 32.690566 -117.024644 292 2955ft 159kts
29-Dec-17 21:01 32.704733 -117.073372 286 2132ft 158kts
29-Dec-17 21:02 32.716947 -117.121427 285 1486ft 158kts
29-Dec-17 21:03 32.728332 -117.168514 284 301ft 155kts
29-Dec-17 21:04 32.736170 -117.200583 287 23ft 10kts
29-Dec-17 21:05 32.734644 -117.202491 196 21ft 6kts
29-Dec-17 21:06 32.733040 -117.202803 151 21ft 6kts
29-Dec-17 21:07 32.732883 -117.201673 86 22ft 0kts

Navigation Log

Ident Type
Flight plan parsing failed, navigation log unavailable